Hitachimaru — JD2063 — position and weather

sailwx.info

Track history (hours):
 
Tides and Currents Weather Stations Pressure Air Temp Water Temp Dewpoint Dewpoint Depression Visibility Wind Speed Wind Dir Waves Ship Positions

Hitachimaru

Last reported at 2017-Jan-17 04:31 UTC. Time now 2017-Jan-20 01:44 UTC.
Position N 35°12' E 139°46'.

Length 83 m; draft 4.7 m.

Type: Cargo ship. MMSI: 431301756.

Date/timePositionNaut miles runAvg speedWind from/ knotsBaromVisibWave heightAir tempDewpointWater temp
2017-Jan-17 04:31N 35°12' E 139°46'1111.9
2017-Jan-17 03:33N 35°22' E 139°42'3 2.8
2017-Jan-17 02:31N 35°23' E 139°38'0 0.0
2017-Jan-17 01:31N 35°23' E 139°38'0 0.0
2017-Jan-17 00:33N 35°23' E 139°38'1 0.9
2017-Jan-16 23:32N 35°23' E 139°40'0 0.0
2017-Jan-16 22:29N 35°23' E 139°40'0 0.0
2017-Jan-16 21:32N 35°23' E 139°40'0 0.0
2017-Jan-16 20:32N 35°23' E 139°40'4 3.6
2017-Jan-16 19:33N 35°25' E 139°43'1212.3
2017-Jan-16 18:33N 35°33' E 139°55'7 0.7
2017-Jan-16 09:30N 35°39' E 139°58'2 2.1
2017-Jan-16 08:22N 35°37' E 139°58'0 0.0
2017-Jan-16 07:13N 35°37' E 139°58'5 7.6
2017-Jan-16 06:33N 35°33' E 139°55'1211.6
2017-Jan-16 05:34N 35°23' E 139°46'1110.7
2017-Jan-16 04:33N 35°13' E 139°47'24510.1
2017-Jan-15 04:13N 34°09' E 134°60'15 8.9
2017-Jan-15 02:33N 34°23' E 135°06'2 0.4
2017-Jan-14 21:31N 34°23' E 135°09'0 0.0
2017-Jan-14 20:31N 34°23' E 135°09'0 0.0
2017-Jan-14 18:25N 34°23' E 135°09'0 0.0
2017-Jan-14 16:07N 34°23' E 135°09'0 0.1
2017-Jan-14 15:31N 34°23' E 135°09'0 0.0
2017-Jan-14 14:19N 34°23' E 135°09'0 0.0
2017-Jan-14 12:19N 34°23' E 135°09'0 0.0
2017-Jan-14 11:31N 34°23' E 135°09'0 0.0
2017-Jan-14 09:31N 34°23' E 135°09'0 0.0
2017-Jan-14 04:29N 34°23' E 135°09'7 7.6
2017-Jan-14 03:33N 34°29' E 135°13'12 2.9
2017-Jan-13 23:17N 34°34' E 135°27'0 0.0
2017-Jan-13 22:29N 34°34' E 135°27'0 0.0
2017-Jan-13 20:29N 34°34' E 135°27'0 0.0
2017-Jan-13 19:29N 34°34' E 135°27'0 0.0
2017-Jan-13 18:29N 34°34' E 135°27'1 1.2
2017-Jan-13 17:27N 34°35' E 135°27'0 0.0
2017-Jan-13 16:33N 34°35' E 135°27'0 0.0
2017-Jan-13 15:33N 34°35' E 135°27'0 0.0
2017-Jan-13 14:33N 34°35' E 135°27'0 0.0
2017-Jan-13 13:33N 34°35' E 135°27'0 0.0
2017-Jan-13 12:33N 34°35' E 135°27'0 0.0
2017-Jan-13 11:33N 34°35' E 135°27'0 0.0
2017-Jan-13 10:33N 34°35' E 135°27'0 0.0
2017-Jan-13 09:33N 34°35' E 135°27'0 0.0
2017-Jan-13 08:27N 34°35' E 135°27'0 0.0
2017-Jan-13 07:27N 34°35' E 135°27'0 0.1
2017-Jan-13 06:33N 34°35' E 135°27'1 0.2
2017-Jan-12 23:20N 34°34' E 135°27'0 0.0
2017-Jan-12 22:32N 34°34' E 135°27'0 0.0
2017-Jan-12 21:32N 34°34' E 135°27'0 0.0
2017-Jan-12 20:32N 34°34' E 135°27'0 0.0
2017-Jan-12 18:32N 34°34' E 135°27'0 0.0
2017-Jan-12 16:32N 34°34' E 135°27'1 1.2
2017-Jan-12 15:31N 34°35' E 135°27'0 0.0
2017-Jan-12 14:25N 34°35' E 135°27'0 0.0
2017-Jan-12 13:31N 34°35' E 135°27'0 0.0
2017-Jan-12 12:13N 34°35' E 135°27'0 0.0
2017-Jan-12 11:25N 34°35' E 135°27'0 0.0
2017-Jan-12 10:31N 34°35' E 135°27'0 0.0
2017-Jan-12 09:25N 34°35' E 135°27'0 0.0
2017-Jan-12 08:19N 34°35' E 135°27'0 0.0
2017-Jan-12 07:31N 34°35' E 135°27'0 0.0
2017-Jan-12 06:25N 34°35' E 135°27'0 0.0
2017-Jan-12 05:31N 34°35' E 135°27'3 2.7
2017-Jan-12 04:32N 34°36' E 135°24'9 9.6
2017-Jan-12 03:33N 34°35' E 135°13'1312.9
2017-Jan-12 02:33N 34°36' E 134°57'2 0.1
2017-Jan-10 12:22N 34°37' E 134°54'910.6
2017-Jan-10 11:33N 34°36' E 135°05'1111.1
2017-Jan-10 10:33N 34°25' E 135°03'1111.5
2017-Jan-10 09:33N 34°13' E 134°60'  
Track history (hours):
 
Tides and Currents Weather Stations Pressure Air Temp Water Temp Dewpoint Dewpoint Depression Visibility Wind Speed Wind Dir Waves Ship Positions

Hitachimaru

Last reported at 2017-Jan-17 04:31 UTC. Time now 2017-Jan-20 01:44 UTC.
Position N 35°12' E 139°46'.

Length 83 m; draft 4.7 m.

Type: Cargo ship. MMSI: 431301756.

Date/timePositionNaut miles runAvg speedWind from/ knotsBaromVisibWave heightAir tempDewpointWater temp
2017-Jan-17 04:31N 35°12' E 139°46'1111.9
2017-Jan-17 03:33N 35°22' E 139°42'3 2.8
2017-Jan-17 02:31N 35°23' E 139°38'0 0.0
2017-Jan-17 01:31N 35°23' E 139°38'0 0.0
2017-Jan-17 00:33N 35°23' E 139°38'1 0.9
2017-Jan-16 23:32N 35°23' E 139°40'0 0.0
2017-Jan-16 22:29N 35°23' E 139°40'0 0.0
2017-Jan-16 21:32N 35°23' E 139°40'0 0.0
2017-Jan-16 20:32N 35°23' E 139°40'4 3.6
2017-Jan-16 19:33N 35°25' E 139°43'1212.3
2017-Jan-16 18:33N 35°33' E 139°55'7 0.7
2017-Jan-16 09:30N 35°39' E 139°58'2 2.1
2017-Jan-16 08:22N 35°37' E 139°58'0 0.0
2017-Jan-16 07:13N 35°37' E 139°58'5 7.6
2017-Jan-16 06:33N 35°33' E 139°55'1211.6
2017-Jan-16 05:34N 35°23' E 139°46'1110.7
2017-Jan-16 04:33N 35°13' E 139°47'24510.1
2017-Jan-15 04:13N 34°09' E 134°60'15 8.9
2017-Jan-15 02:33N 34°23' E 135°06'2 0.4
2017-Jan-14 21:31N 34°23' E 135°09'0 0.0
2017-Jan-14 20:31N 34°23' E 135°09'0 0.0
2017-Jan-14 18:25N 34°23' E 135°09'0 0.0
2017-Jan-14 16:07N 34°23' E 135°09'0 0.1
2017-Jan-14 15:31N 34°23' E 135°09'0 0.0
2017-Jan-14 14:19N 34°23' E 135°09'0 0.0
2017-Jan-14 12:19N 34°23' E 135°09'0 0.0
2017-Jan-14 11:31N 34°23' E 135°09'0 0.0
2017-Jan-14 09:31N 34°23' E 135°09'0 0.0
2017-Jan-14 04:29N 34°23' E 135°09'7 7.6
2017-Jan-14 03:33N 34°29' E 135°13'12 2.9
2017-Jan-13 23:17N 34°34' E 135°27'0 0.0
2017-Jan-13 22:29N 34°34' E 135°27'0 0.0
2017-Jan-13 20:29N 34°34' E 135°27'0 0.0
2017-Jan-13 19:29N 34°34' E 135°27'0 0.0
2017-Jan-13 18:29N 34°34' E 135°27'1 1.2
2017-Jan-13 17:27N 34°35' E 135°27'0 0.0
2017-Jan-13 16:33N 34°35' E 135°27'0 0.0
2017-Jan-13 15:33N 34°35' E 135°27'0 0.0
2017-Jan-13 14:33N 34°35' E 135°27'0 0.0
2017-Jan-13 13:33N 34°35' E 135°27'0 0.0
2017-Jan-13 12:33N 34°35' E 135°27'0 0.0
2017-Jan-13 11:33N 34°35' E 135°27'0 0.0
2017-Jan-13 10:33N 34°35' E 135°27'0 0.0
2017-Jan-13 09:33N 34°35' E 135°27'0 0.0
2017-Jan-13 08:27N 34°35' E 135°27'0 0.0
2017-Jan-13 07:27N 34°35' E 135°27'0 0.1
2017-Jan-13 06:33N 34°35' E 135°27'1 0.2
2017-Jan-12 23:20N 34°34' E 135°27'0 0.0
2017-Jan-12 22:32N 34°34' E 135°27'0 0.0
2017-Jan-12 21:32N 34°34' E 135°27'0 0.0
2017-Jan-12 20:32N 34°34' E 135°27'0 0.0
2017-Jan-12 18:32N 34°34' E 135°27'0 0.0
2017-Jan-12 16:32N 34°34' E 135°27'1 1.2
2017-Jan-12 15:31N 34°35' E 135°27'0 0.0
2017-Jan-12 14:25N 34°35' E 135°27'0 0.0
2017-Jan-12 13:31N 34°35' E 135°27'0 0.0
2017-Jan-12 12:13N 34°35' E 135°27'0 0.0
2017-Jan-12 11:25N 34°35' E 135°27'0 0.0
2017-Jan-12 10:31N 34°35' E 135°27'0 0.0
2017-Jan-12 09:25N 34°35' E 135°27'0 0.0
2017-Jan-12 08:19N 34°35' E 135°27'0 0.0
2017-Jan-12 07:31N 34°35' E 135°27'0 0.0
2017-Jan-12 06:25N 34°35' E 135°27'0 0.0
2017-Jan-12 05:31N 34°35' E 135°27'3 2.7
2017-Jan-12 04:32N 34°36' E 135°24'9 9.6
2017-Jan-12 03:33N 34°35' E 135°13'1312.9
2017-Jan-12 02:33N 34°36' E 134°57'2 0.1
2017-Jan-10 12:22N 34°37' E 134°54'910.6
2017-Jan-10 11:33N 34°36' E 135°05'1111.1
2017-Jan-10 10:33N 34°25' E 135°03'1111.5
2017-Jan-10 09:33N 34°13' E 134°60'  

Dump ship's entire track history